createdAt,value
2019-02-07T00:04:39.736Z,43.90
2019-02-07T00:09:45.096Z,28.00
2019-02-07T00:14:50.667Z,36.20
2019-02-07T00:19:55.457Z,19.40
2019-02-07T00:25:00.748Z,34.97
2019-02-07T00:30:07.382Z,31.97
2019-02-07T00:35:13.432Z,25.00
2019-02-07T00:40:18.275Z,33.83
2019-02-07T00:45:24.937Z,32.07
2019-02-07T00:50:31.143Z,30.70
2019-02-07T00:55:37.436Z,30.33
2019-02-07T01:00:42.704Z,39.67
2019-02-07T01:05:48.319Z,56.90
2019-02-07T01:10:54.067Z,42.17
2019-02-07T01:16:00.187Z,46.47
2019-02-07T01:21:05.147Z,36.70
2019-02-07T01:26:11.544Z,36.17
2019-02-07T01:31:17.698Z,28.00
2019-02-07T01:36:24.035Z,41.67
2019-02-07T01:41:29.790Z,26.70
2019-02-07T01:46:35.691Z,32.53
2019-02-07T01:51:42.351Z,13.90
2019-02-07T01:56:47.843Z,52.80
2019-02-07T02:01:54.052Z,30.20
2019-02-07T02:07:00.243Z,40.50
2019-02-07T02:12:05.991Z,39.40
2019-02-07T02:17:13.503Z,17.47
2019-02-07T02:22:19.030Z,29.23
2019-02-07T02:27:24.236Z,16.17
2019-02-07T02:32:29.744Z,33.93
2019-02-07T02:37:35.280Z,42.73
2019-02-07T02:42:40.992Z,6.30
2019-02-07T02:47:46.511Z,53.47
2019-02-07T02:52:53.339Z,26.63
2019-02-07T02:57:59.086Z,9.00
2019-02-07T03:03:36.582Z,52.93
2019-02-07T03:09:01.858Z,27.57
2019-02-07T03:14:36.642Z,32.90
2019-02-07T03:20:00.692Z,54.40
2019-02-07T03:25:32.139Z,56.47
2019-02-07T03:30:58.925Z,44.03
2019-02-07T03:36:15.311Z,51.40
2019-02-07T03:41:38.283Z,19.47
2019-02-07T03:46:54.806Z,18.73
2019-02-07T03:52:31.239Z,61.67
2019-02-07T03:57:55.505Z,35.17
2019-02-07T04:03:11.413Z,42.03
2019-02-07T04:08:51.337Z,54.93
2019-02-07T04:14:07.815Z,60.23
2019-02-07T04:19:48.498Z,49.60
2019-02-07T04:25:13.880Z,46.03
2019-02-07T04:30:33.132Z,41.60
2019-02-07T04:35:55.611Z,75.23
2019-02-07T04:41:19.392Z,19.97
2019-02-07T04:46:47.551Z,40.97
2019-02-07T04:52:11.037Z,28.20
2019-02-07T04:57:33.646Z,18.53
2019-02-07T05:03:10.168Z,11.73
2019-02-07T05:08:52.940Z,35.13
2019-02-07T05:14:26.180Z,46.80
2019-02-07T05:19:49.447Z,31.27
2019-02-07T05:25:12.488Z,25.20
2019-02-07T05:30:39.451Z,11.27
2019-02-07T05:36:09.695Z,21.70
2019-02-07T05:41:39.930Z,46.73
2019-02-07T05:47:10.275Z,19.17
2019-02-07T05:52:26.280Z,17.83
2019-02-07T05:57:45.155Z,8.50
2019-02-07T06:03:03.830Z,34.73
2019-02-07T06:08:22.124Z,26.53
2019-02-07T06:13:36.877Z,21.90
2019-02-07T06:19:16.323Z,25.40
2019-02-07T06:24:40.046Z,9.90
2019-02-07T06:29:51.859Z,47.07
2019-02-07T06:35:21.929Z,16.37
2019-02-07T06:40:45.159Z,10.27
2019-02-07T06:46:09.410Z,29.07
2019-02-07T06:51:36.807Z,27.57
2019-02-07T06:57:00.110Z,27.73
2019-02-07T07:02:30.007Z,30.17
2019-02-07T07:08:12.551Z,17.90
2019-02-07T07:13:35.282Z,21.87
2019-02-07T07:18:58.142Z,30.67
2019-02-07T07:24:28.679Z,22.30
2019-02-07T07:30:01.949Z,26.70
2019-02-07T07:35:34.719Z,35.60
2019-02-07T07:41:02.014Z,22.63
2019-02-07T07:46:22.575Z,13.73
2019-02-07T07:52:02.236Z,26.23
2019-02-07T07:57:26.624Z,38.27
2019-02-07T08:02:57.370Z,25.33
2019-02-07T08:08:33.155Z,23.13
2019-02-07T08:13:52.563Z,33.27
2019-02-07T08:19:22.862Z,27.60
2019-02-07T08:24:52.165Z,43.57
2019-02-07T08:30:36.388Z,40.63
2019-02-07T08:36:04.192Z,39.57
2019-02-07T08:41:26.950Z,33.23
2019-02-07T08:47:00.134Z,46.50
2019-02-07T08:52:31.421Z,38.07
2019-02-07T08:57:49.132Z,32.63
2019-02-07T09:03:16.150Z,43.23
2019-02-07T09:08:39.341Z,38.30
2019-02-07T09:14:05.116Z,49.10
2019-02-07T09:19:28.228Z,43.83
2019-02-07T09:24:57.253Z,32.90
2019-02-07T09:30:20.484Z,46.83
2019-02-07T09:36:05.487Z,37.37
2019-02-07T09:41:25.716Z,45.13
2019-02-07T09:46:56.080Z,36.10
2019-02-07T09:52:20.458Z,47.77
2019-02-07T09:57:51.283Z,40.77
2019-02-07T10:03:27.633Z,26.93
2019-02-07T10:09:10.458Z,20.03
2019-02-07T10:14:43.782Z,36.73
2019-02-07T10:20:08.598Z,38.23
2019-02-07T10:25:31.950Z,26.80
2019-02-07T10:30:54.787Z,43.37
2019-02-07T10:36:20.363Z,38.03
2019-02-07T10:41:41.842Z,38.50
2019-02-07T10:47:07.881Z,42.57
2019-02-07T10:52:50.760Z,39.13
2019-02-07T10:58:14.049Z,27.80
2019-02-07T11:03:37.131Z,40.17
2019-02-07T11:09:02.189Z,42.90
2019-02-07T11:14:37.180Z,41.97
2019-02-07T11:20:01.435Z,48.97
2019-02-07T11:25:27.212Z,47.90
2019-02-07T11:30:54.255Z,46.83
2019-02-07T11:36:33.603Z,51.27
2019-02-07T11:42:15.987Z,50.50
2019-02-07T11:47:43.244Z,54.33
2019-02-07T11:53:01.163Z,59.23
2019-02-07T11:58:43.557Z,59.40
2019-02-07T12:04:02.626Z,48.53
2019-02-07T12:09:36.981Z,57.40
2019-02-07T12:14:54.786Z,56.17
2019-02-07T12:20:25.384Z,53.40
2019-02-07T12:25:48.218Z,47.33
2019-02-07T12:31:13.203Z,41.53
2019-02-07T12:36:29.534Z,47.27
2019-02-07T12:41:52.636Z,40.80
2019-02-07T12:47:15.655Z,41.73
2019-02-07T12:52:39.878Z,45.10
2019-02-07T12:58:02.996Z,36.53
2019-02-07T13:03:27.206Z,46.27
2019-02-07T13:08:47.887Z,39.17
2019-02-07T13:14:14.576Z,53.10
2019-02-07T13:19:50.487Z,50.27
2019-02-07T13:25:17.695Z,52.57
2019-02-07T13:30:45.108Z,47.80
2019-02-07T13:35:57.721Z,47.00
2019-02-07T13:41:21.871Z,42.63
2019-02-07T13:46:50.555Z,42.33
2019-02-07T13:52:17.350Z,43.87
2019-02-07T13:57:41.507Z,37.73
2019-02-07T14:03:07.451Z,40.33
2019-02-07T14:08:38.258Z,40.03
2019-02-07T14:13:55.285Z,32.90
2019-02-07T14:19:18.448Z,47.77
2019-02-07T14:24:41.640Z,48.13
2019-02-07T14:30:05.888Z,49.60
2019-02-07T14:35:30.717Z,44.07
2019-02-07T14:40:46.701Z,52.37
2019-02-07T14:46:13.948Z,52.27
2019-02-07T14:51:19.264Z,46.23
2019-02-07T14:56:24.895Z,55.07
2019-02-07T15:01:29.783Z,51.63
2019-02-07T15:06:34.947Z,40.90
2019-02-07T15:11:40.295Z,43.23
2019-02-07T15:16:45.674Z,46.57
2019-02-07T15:21:50.994Z,57.80
2019-02-07T15:26:56.503Z,55.13
2019-02-07T15:32:03.295Z,56.23
2019-02-07T15:37:08.869Z,53.27
2019-02-07T15:42:14.570Z,56.33
2019-02-07T15:47:19.939Z,51.60
2019-02-07T15:52:25.643Z,57.80
2019-02-07T15:57:31.199Z,58.70
2019-02-07T16:02:43.740Z,65.53
2019-02-07T16:07:49.068Z,55.97
2019-02-07T16:12:54.434Z,64.67
2019-02-07T16:17:59.254Z,101.97
2019-02-07T16:23:04.735Z,69.67
2019-02-07T16:28:10.456Z,79.53
2019-02-07T16:33:16.446Z,60.23
2019-02-07T16:38:22.064Z,65.13
2019-02-07T16:43:27.941Z,71.10
2019-02-07T16:48:32.723Z,83.20
2019-02-07T16:53:37.276Z,69.60
2019-02-07T16:58:41.978Z,85.53
2019-02-07T17:03:47.192Z,73.80
2019-02-07T17:08:52.763Z,66.83
2019-02-07T17:13:57.576Z,108.17
2019-02-07T17:19:02.915Z,86.30
2019-02-07T17:24:07.668Z,87.83
2019-02-07T17:29:16.489Z,96.47
2019-02-07T17:34:22.115Z,86.13
2019-02-07T17:39:28.333Z,88.63
2019-02-07T17:44:35.156Z,87.13
2019-02-07T17:49:41.522Z,83.53
2019-02-07T17:54:47.791Z,82.77
2019-02-07T17:59:54.112Z,92.30
2019-02-07T18:05:00.342Z,92.43
2019-02-07T18:10:09.021Z,82.17
2019-02-07T18:15:14.351Z,79.30
2019-02-07T18:20:21.195Z,108.60
2019-02-07T18:25:27.900Z,116.80
2019-02-07T18:30:33.653Z,110.87
2019-02-07T18:35:38.983Z,83.77
2019-02-07T18:40:44.282Z,93.73
2019-02-07T18:45:49.584Z,79.73
2019-02-07T18:50:54.895Z,81.30
2019-02-07T18:56:00.406Z,94.10
2019-02-07T19:01:05.819Z,83.97
2019-02-07T19:06:11.131Z,96.30
2019-02-07T19:11:16.442Z,104.03
2019-02-07T19:16:21.749Z,110.00
2019-02-07T19:21:27.105Z,111.77
2019-02-07T19:26:32.412Z,93.73
2019-02-07T19:31:37.722Z,119.60
2019-02-07T19:36:42.522Z,121.07
2019-02-07T19:41:47.806Z,119.13
2019-02-07T19:46:53.245Z,109.80
2019-02-07T19:52:07.996Z,83.13
2019-02-07T19:57:05.791Z,111.43
2019-02-07T20:02:11.164Z,106.07
2019-02-07T20:07:16.496Z,125.87
2019-02-07T20:12:21.818Z,128.27
2019-02-07T20:17:28.190Z,127.07
2019-02-07T20:22:33.563Z,136.50
2019-02-07T20:27:38.987Z,110.13
2019-02-07T20:32:44.390Z,125.63
2019-02-07T20:37:49.962Z,110.20
2019-02-07T20:42:55.415Z,114.17
2019-02-07T20:48:01.099Z,108.10
2019-02-07T20:53:08.152Z,116.70
2019-02-07T20:58:13.558Z,131.30
2019-02-07T21:03:18.943Z,139.97
2019-02-07T21:08:24.533Z,117.60
2019-02-07T21:13:29.898Z,144.80
2019-02-07T21:18:35.422Z,128.80
2019-02-07T21:23:40.843Z,134.87
2019-02-07T21:28:46.296Z,140.37
2019-02-07T21:33:51.842Z,108.60
2019-02-07T21:38:57.642Z,165.37
2019-02-07T21:44:03.430Z,138.53
2019-02-07T21:49:08.865Z,119.83
2019-02-07T21:54:14.859Z,137.23
2019-02-07T21:59:20.330Z,129.93
2019-02-07T22:04:26.383Z,123.47
2019-02-07T22:09:32.268Z,164.50
2019-02-07T22:14:38.882Z,126.90
2019-02-07T22:19:44.327Z,149.07
2019-02-07T22:24:50.087Z,128.37
2019-02-07T22:29:55.491Z,109.87
2019-02-07T22:35:01.186Z,116.27
2019-02-07T22:40:10.351Z,112.23
2019-02-07T22:45:16.523Z,114.43
2019-02-07T22:50:27.651Z,121.90
2019-02-07T22:55:32.990Z,120.67
2019-02-07T23:01:24.899Z,116.17
2019-02-07T23:06:30.585Z,145.70
2019-02-07T23:11:36.063Z,118.20
2019-02-07T23:16:41.665Z,128.97
2019-02-07T23:21:47.939Z,111.37
2019-02-07T23:26:53.362Z,129.80
2019-02-07T23:31:58.664Z,122.80
2019-02-07T23:37:04.322Z,122.33
2019-02-07T23:42:09.992Z,125.97
2019-02-07T23:47:15.938Z,129.63
2019-02-07T23:52:21.255Z,132.80
2019-02-07T23:57:26.866Z,128.90
